sensor_id;sensor_type;location;lat;lon;timestamp;temperature;humidity
292;DHT22;23311;48.776;9.162;2023-07-31T00:01:06;16.00;95.50
292;DHT22;23311;48.776;9.162;2023-07-31T00:03:34;16.00;95.50
292;DHT22;23311;48.776;9.162;2023-07-31T00:06:02;16.00;95.50
292;DHT22;23311;48.776;9.162;2023-07-31T00:08:32;15.80;95.50
292;DHT22;23311;48.776;9.162;2023-07-31T00:11:00;15.80;95.50
292;DHT22;23311;48.776;9.162;2023-07-31T00:13:28;15.70;95.50
292;DHT22;23311;48.776;9.162;2023-07-31T00:15:56;15.70;95.50
292;DHT22;23311;48.776;9.162;2023-07-31T00:18:24;15.70;95.50
292;DHT22;23311;48.776;9.162;2023-07-31T00:20:53;15.80;95.50
292;DHT22;23311;48.776;9.162;2023-07-31T00:23:21;15.80;95.50
292;DHT22;23311;48.776;9.162;2023-07-31T00:25:50;15.80;95.50
292;DHT22;23311;48.776;9.162;2023-07-31T00:28:18;15.80;95.50
292;DHT22;23311;48.776;9.162;2023-07-31T00:30:46;15.70;95.50
292;DHT22;23311;48.776;9.162;2023-07-31T00:33:14;15.70;95.50
292;DHT22;23311;48.776;9.162;2023-07-31T00:35:42;15.70;95.50
292;DHT22;23311;48.776;9.162;2023-07-31T00:38:11;15.90;95.50
292;DHT22;23311;48.776;9.162;2023-07-31T00:40:39;15.90;95.50
292;DHT22;23311;48.776;9.162;2023-07-31T00:43:08;15.90;95.50
292;DHT22;23311;48.776;9.162;2023-07-31T00:45:36;15.90;95.50
292;DHT22;23311;48.776;9.162;2023-07-31T00:48:05;15.90;95.50
292;DHT22;23311;48.776;9.162;2023-07-31T00:50:35;15.90;95.50
292;DHT22;23311;48.776;9.162;2023-07-31T00:53:03;15.80;95.50
292;DHT22;23311;48.776;9.162;2023-07-31T00:55:31;15.80;95.50
292;DHT22;23311;48.776;9.162;2023-07-31T00:57:59;15.80;95.50
292;DHT22;23311;48.776;9.162;2023-07-31T01:00:29;15.70;95.50
292;DHT22;23311;48.776;9.162;2023-07-31T01:02:57;15.70;95.50
292;DHT22;23311;48.776;9.162;2023-07-31T01:05:35;15.80;95.50
292;DHT22;23311;48.776;9.162;2023-07-31T01:08:09;15.50;95.50
292;DHT22;23311;48.776;9.162;2023-07-31T01:10:45;15.50;95.50
292;DHT22;23311;48.776;9.162;2023-07-31T01:13:15;15.40;95.50
292;DHT22;23311;48.776;9.162;2023-07-31T01:15:45;15.20;95.50
292;DHT22;23311;48.776;9.162;2023-07-31T01:18:13;15.10;95.50
292;DHT22;23311;48.776;9.162;2023-07-31T01:20:42;15.00;95.50
292;DHT22;23311;48.776;9.162;2023-07-31T01:23:33;15.10;95.50
292;DHT22;23311;48.776;9.162;2023-07-31T01:26:11;15.30;95.50
292;DHT22;23311;48.776;9.162;2023-07-31T01:28:47;15.40;95.50
292;DHT22;23311;48.776;9.162;2023-07-31T01:31:22;15.30;95.50
292;DHT22;23311;48.776;9.162;2023-07-31T01:33:53;15.30;95.50
292;DHT22;23311;48.776;9.162;2023-07-31T01:36:21;15.10;95.50
292;DHT22;23311;48.776;9.162;2023-07-31T01:38:49;15.00;95.50
292;DHT22;23311;48.776;9.162;2023-07-31T01:41:19;15.00;95.50
292;DHT22;23311;48.776;9.162;2023-07-31T01:43:47;15.00;95.50
292;DHT22;23311;48.776;9.162;2023-07-31T01:46:16;15.00;95.50
292;DHT22;23311;48.776;9.162;2023-07-31T01:48:44;15.00;95.50
292;DHT22;23311;48.776;9.162;2023-07-31T01:51:12;15.00;95.50
292;DHT22;23311;48.776;9.162;2023-07-31T01:53:40;15.00;95.50
292;DHT22;23311;48.776;9.162;2023-07-31T01:56:08;15.10;95.50
292;DHT22;23311;48.776;9.162;2023-07-31T01:58:38;15.30;95.50
292;DHT22;23311;48.776;9.162;2023-07-31T02:01:06;15.30;95.50
292;DHT22;23311;48.776;9.162;2023-07-31T02:03:34;15.20;95.50
292;DHT22;23311;48.776;9.162;2023-07-31T02:06:02;15.30;95.50
292;DHT22;23311;48.776;9.162;2023-07-31T02:08:30;15.30;95.50
292;DHT22;23311;48.776;9.162;2023-07-31T02:10:58;15.30;95.50
292;DHT22;23311;48.776;9.162;2023-07-31T02:13:27;15.20;95.50
292;DHT22;23311;48.776;9.162;2023-07-31T02:15:56;15.30;95.50
292;DHT22;23311;48.776;9.162;2023-07-31T02:18:24;15.40;95.50
292;DHT22;23311;48.776;9.162;2023-07-31T02:20:52;15.50;95.50
292;DHT22;23311;48.776;9.162;2023-07-31T02:23:20;15.60;95.50
292;DHT22;23311;48.776;9.162;2023-07-31T02:25:49;15.50;95.50
292;DHT22;23311;48.776;9.162;2023-07-31T02:28:17;15.50;95.50
292;DHT22;23311;48.776;9.162;2023-07-31T02:30:45;15.60;95.50
292;DHT22;23311;48.776;9.162;2023-07-31T02:33:15;15.60;95.50
292;DHT22;23311;48.776;9.162;2023-07-31T02:35:43;15.50;95.50
292;DHT22;23311;48.776;9.162;2023-07-31T02:38:11;15.40;95.50
292;DHT22;23311;48.776;9.162;2023-07-31T02:40:39;15.30;95.50
292;DHT22;23311;48.776;9.162;2023-07-31T02:43:08;15.40;95.50
292;DHT22;23311;48.776;9.162;2023-07-31T02:45:36;15.40;95.50
292;DHT22;23311;48.776;9.162;2023-07-31T02:48:04;15.40;95.50
292;DHT22;23311;48.776;9.162;2023-07-31T02:50:34;15.30;95.50
292;DHT22;23311;48.776;9.162;2023-07-31T02:53:02;15.30;95.50
292;DHT22;23311;48.776;9.162;2023-07-31T02:55:30;15.20;95.50
292;DHT22;23311;48.776;9.162;2023-07-31T02:57:58;15.30;95.50
292;DHT22;23311;48.776;9.162;2023-07-31T03:00:27;15.30;95.50
292;DHT22;23311;48.776;9.162;2023-07-31T03:02:55;15.20;95.50
292;DHT22;23311;48.776;9.162;2023-07-31T03:05:23;15.40;95.50
292;DHT22;23311;48.776;9.162;2023-07-31T03:07:53;15.30;95.50
292;DHT22;23311;48.776;9.162;2023-07-31T03:10:21;15.20;95.50
292;DHT22;23311;48.776;9.162;2023-07-31T03:12:49;15.20;95.50
292;DHT22;23311;48.776;9.162;2023-07-31T03:15:17;15.10;95.50
292;DHT22;23311;48.776;9.162;2023-07-31T03:17:45;15.00;95.50
292;DHT22;23311;48.776;9.162;2023-07-31T03:20:13;15.00;95.50
292;DHT22;23311;48.776;9.162;2023-07-31T03:22:45;14.90;95.50
292;DHT22;23311;48.776;9.162;2023-07-31T03:25:15;14.90;95.50
292;DHT22;23311;48.776;9.162;2023-07-31T03:27:43;14.90;95.50
292;DHT22;23311;48.776;9.162;2023-07-31T03:30:11;14.90;95.50
292;DHT22;23311;48.776;9.162;2023-07-31T03:32:39;15.00;95.50
292;DHT22;23311;48.776;9.162;2023-07-31T03:35:07;15.00;95.50
292;DHT22;23311;48.776;9.162;2023-07-31T03:37:35;15.10;95.50
292;DHT22;23311;48.776;9.162;2023-07-31T03:40:05;15.10;95.50
292;DHT22;23311;48.776;9.162;2023-07-31T03:42:35;15.00;95.50
292;DHT22;23311;48.776;9.162;2023-07-31T03:45:04;15.10;95.50
292;DHT22;23311;48.776;9.162;2023-07-31T03:47:32;15.10;95.50
292;DHT22;23311;48.776;9.162;2023-07-31T03:50:00;15.10;95.50
292;DHT22;23311;48.776;9.162;2023-07-31T03:52:28;15.20;95.50
292;DHT22;23311;48.776;9.162;2023-07-31T03:54:56;15.30;95.50
292;DHT22;23311;48.776;9.162;2023-07-31T03:57:25;15.50;95.50
292;DHT22;23311;48.776;9.162;2023-07-31T03:59:54;15.60;95.50
292;DHT22;23311;48.776;9.162;2023-07-31T04:02:22;15.60;95.50
292;DHT22;23311;48.776;9.162;2023-07-31T04:04:50;15.70;95.50
292;DHT22;23311;48.776;9.162;2023-07-31T04:07:18;15.80;95.50
292;DHT22;23311;48.776;9.162;2023-07-31T04:09:47;16.00;95.50
292;DHT22;23311;48.776;9.162;2023-07-31T04:12:15;16.10;95.50
292;DHT22;23311;48.776;9.162;2023-07-31T04:14:43;16.30;95.50
292;DHT22;23311;48.776;9.162;2023-07-31T04:17:12;16.40;95.50
292;DHT22;23311;48.776;9.162;2023-07-31T04:19:40;16.50;95.50
292;DHT22;23311;48.776;9.162;2023-07-31T04:22:08;16.60;95.50
292;DHT22;23311;48.776;9.162;2023-07-31T04:24:37;16.70;95.50
292;DHT22;23311;48.776;9.162;2023-07-31T04:27:05;16.80;95.50
292;DHT22;23311;48.776;9.162;2023-07-31T04:29:34;16.80;95.50
292;DHT22;23311;48.776;9.162;2023-07-31T04:32:02;16.80;95.50
292;DHT22;23311;48.776;9.162;2023-07-31T04:34:31;16.90;95.50
292;DHT22;23311;48.776;9.162;2023-07-31T04:36:59;17.00;95.50
292;DHT22;23311;48.776;9.162;2023-07-31T04:39:28;17.00;95.50
292;DHT22;23311;48.776;9.162;2023-07-31T04:41:56;17.10;95.50
292;DHT22;23311;48.776;9.162;2023-07-31T04:44:24;17.20;95.50
292;DHT22;23311;48.776;9.162;2023-07-31T04:46:52;17.20;95.50
292;DHT22;23311;48.776;9.162;2023-07-31T04:49:20;17.30;95.50
292;DHT22;23311;48.776;9.162;2023-07-31T04:51:50;17.40;95.50
292;DHT22;23311;48.776;9.162;2023-07-31T04:54:18;17.50;95.50
292;DHT22;23311;48.776;9.162;2023-07-31T04:56:46;17.60;95.50
292;DHT22;23311;48.776;9.162;2023-07-31T04:59:14;17.60;95.50
292;DHT22;23311;48.776;9.162;2023-07-31T05:01:42;17.60;95.50
292;DHT22;23311;48.776;9.162;2023-07-31T05:04:12;17.50;95.50
292;DHT22;23311;48.776;9.162;2023-07-31T05:06:41;17.50;95.50
292;DHT22;23311;48.776;9.162;2023-07-31T05:09:10;17.40;95.50
292;DHT22;23311;48.776;9.162;2023-07-31T05:11:39;17.40;95.50
292;DHT22;23311;48.776;9.162;2023-07-31T05:14:09;17.40;95.50
292;DHT22;23311;48.776;9.162;2023-07-31T05:16:37;17.40;95.50
292;DHT22;23311;48.776;9.162;2023-07-31T05:19:06;17.50;95.50
292;DHT22;23311;48.776;9.162;2023-07-31T05:21:34;17.50;95.50
292;DHT22;23311;48.776;9.162;2023-07-31T05:24:03;17.50;95.50
292;DHT22;23311;48.776;9.162;2023-07-31T05:26:32;17.60;95.50
292;DHT22;23311;48.776;9.162;2023-07-31T05:29:00;17.50;95.50
292;DHT22;23311;48.776;9.162;2023-07-31T05:31:28;17.70;95.50
292;DHT22;23311;48.776;9.162;2023-07-31T05:33:59;17.70;95.50
292;DHT22;23311;48.776;9.162;2023-07-31T05:36:27;17.80;95.50
292;DHT22;23311;48.776;9.162;2023-07-31T05:38:55;17.90;95.50
292;DHT22;23311;48.776;9.162;2023-07-31T05:41:23;18.00;95.50
292;DHT22;23311;48.776;9.162;2023-07-31T05:43:53;18.10;95.50
292;DHT22;23311;48.776;9.162;2023-07-31T05:46:21;18.50;95.50
292;DHT22;23311;48.776;9.162;2023-07-31T05:48:49;18.60;95.50
292;DHT22;23311;48.776;9.162;2023-07-31T05:51:17;18.70;95.50
292;DHT22;23311;48.776;9.162;2023-07-31T05:53:45;18.70;95.50
292;DHT22;23311;48.776;9.162;2023-07-31T05:56:13;18.90;95.50
292;DHT22;23311;48.776;9.162;2023-07-31T05:58:42;19.00;95.50
292;DHT22;23311;48.776;9.162;2023-07-31T06:01:11;19.30;95.50
292;DHT22;23311;48.776;9.162;2023-07-31T06:03:39;19.60;94.70
292;DHT22;23311;48.776;9.162;2023-07-31T06:06:08;19.70;94.00
292;DHT22;23311;48.776;9.162;2023-07-31T06:08:36;20.10;93.20
292;DHT22;23311;48.776;9.162;2023-07-31T06:11:04;20.60;92.20
292;DHT22;23311;48.776;9.162;2023-07-31T06:13:32;21.20;90.30
292;DHT22;23311;48.776;9.162;2023-07-31T06:16:00;21.10;89.90
292;DHT22;23311;48.776;9.162;2023-07-31T06:18:33;21.00;89.50
292;DHT22;23311;48.776;9.162;2023-07-31T06:21:01;20.60;89.70
292;DHT22;23311;48.776;9.162;2023-07-31T06:23:29;20.20;91.30
292;DHT22;23311;48.776;9.162;2023-07-31T06:25:57;21.00;90.00
292;DHT22;23311;48.776;9.162;2023-07-31T06:28:27;21.80;87.40
292;DHT22;23311;48.776;9.162;2023-07-31T06:30:56;22.10;86.00
292;DHT22;23311;48.776;9.162;2023-07-31T06:33:24;22.00;86.60
292;DHT22;23311;48.776;9.162;2023-07-31T06:35:54;23.60;83.10
292;DHT22;23311;48.776;9.162;2023-07-31T06:38:24;23.20;83.00
292;DHT22;23311;48.776;9.162;2023-07-31T06:40:53;22.30;84.90
292;DHT22;23311;48.776;9.162;2023-07-31T06:43:21;22.00;85.60
292;DHT22;23311;48.776;9.162;2023-07-31T06:45:49;21.60;86.50
292;DHT22;23311;48.776;9.162;2023-07-31T06:48:18;21.70;86.60
292;DHT22;23311;48.776;9.162;2023-07-31T06:50:46;22.60;84.60
292;DHT22;23311;48.776;9.162;2023-07-31T06:53:16;23.00;83.00
292;DHT22;23311;48.776;9.162;2023-07-31T06:55:44;22.90;83.90
292;DHT22;23311;48.776;9.162;2023-07-31T06:58:12;23.70;81.90
292;DHT22;23311;48.776;9.162;2023-07-31T07:00:40;22.40;84.30
292;DHT22;23311;48.776;9.162;2023-07-31T07:03:08;22.90;83.30
292;DHT22;23311;48.776;9.162;2023-07-31T07:05:36;22.50;83.90
292;DHT22;23311;48.776;9.162;2023-07-31T07:08:04;21.60;86.10
292;DHT22;23311;48.776;9.162;2023-07-31T07:10:34;21.20;87.50
292;DHT22;23311;48.776;9.162;2023-07-31T07:13:02;21.30;87.60
292;DHT22;23311;48.776;9.162;2023-07-31T07:15:30;21.70;86.30
292;DHT22;23311;48.776;9.162;2023-07-31T07:17:58;22.50;84.90
292;DHT22;23311;48.776;9.162;2023-07-31T07:20:26;22.90;84.10
292;DHT22;23311;48.776;9.162;2023-07-31T07:22:54;23.50;81.30
292;DHT22;23311;48.776;9.162;2023-07-31T07:25:22;24.50;79.70
292;DHT22;23311;48.776;9.162;2023-07-31T07:27:52;25.10;77.70
292;DHT22;23311;48.776;9.162;2023-07-31T07:30:20;23.20;81.40
292;DHT22;23311;48.776;9.162;2023-07-31T07:32:48;23.50;82.00
292;DHT22;23311;48.776;9.162;2023-07-31T07:35:16;24.40;79.70
292;DHT22;23311;48.776;9.162;2023-07-31T07:37:44;24.00;79.90
292;DHT22;23311;48.776;9.162;2023-07-31T07:40:12;23.40;80.80
292;DHT22;23311;48.776;9.162;2023-07-31T07:42:40;22.90;82.40
292;DHT22;23311;48.776;9.162;2023-07-31T07:45:10;23.10;82.40
292;DHT22;23311;48.776;9.162;2023-07-31T07:47:40;23.80;80.90
292;DHT22;23311;48.776;9.162;2023-07-31T07:50:08;24.30;80.30
292;DHT22;23311;48.776;9.162;2023-07-31T07:52:37;24.60;78.50
292;DHT22;23311;48.776;9.162;2023-07-31T07:55:05;25.00;77.80
292;DHT22;23311;48.776;9.162;2023-07-31T07:57:34;26.20;75.70
292;DHT22;23311;48.776;9.162;2023-07-31T08:00:02;25.60;75.10
292;DHT22;23311;48.776;9.162;2023-07-31T08:02:32;23.50;80.40
292;DHT22;23311;48.776;9.162;2023-07-31T08:05:00;24.60;79.60
292;DHT22;23311;48.776;9.162;2023-07-31T08:07:28;26.20;76.00
292;DHT22;23311;48.776;9.162;2023-07-31T08:09:56;26.60;74.90
292;DHT22;23311;48.776;9.162;2023-07-31T08:12:24;26.50;74.30
292;DHT22;23311;48.776;9.162;2023-07-31T08:14:53;26.40;74.20
292;DHT22;23311;48.776;9.162;2023-07-31T08:17:21;26.30;73.90
292;DHT22;23311;48.776;9.162;2023-07-31T08:19:50;26.70;73.30
292;DHT22;23311;48.776;9.162;2023-07-31T08:22:18;26.90;73.20
292;DHT22;23311;48.776;9.162;2023-07-31T08:24:46;26.70;72.50
292;DHT22;23311;48.776;9.162;2023-07-31T08:27:14;26.40;74.30
292;DHT22;23311;48.776;9.162;2023-07-31T08:29:43;27.50;72.20
292;DHT22;23311;48.776;9.162;2023-07-31T08:32:11;27.60;71.10
292;DHT22;23311;48.776;9.162;2023-07-31T08:34:39;28.60;69.90
292;DHT22;23311;48.776;9.162;2023-07-31T08:37:10;28.70;68.70
292;DHT22;23311;48.776;9.162;2023-07-31T08:39:38;26.60;71.90
292;DHT22;23311;48.776;9.162;2023-07-31T08:42:08;25.70;74.50
292;DHT22;23311;48.776;9.162;2023-07-31T08:44:37;25.60;75.10
292;DHT22;23311;48.776;9.162;2023-07-31T08:47:06;25.60;74.80
292;DHT22;23311;48.776;9.162;2023-07-31T08:49:35;26.00;74.90
292;DHT22;23311;48.776;9.162;2023-07-31T08:52:04;26.10;74.60
292;DHT22;23311;48.776;9.162;2023-07-31T08:54:34;27.20;72.10
292;DHT22;23311;48.776;9.162;2023-07-31T08:57:04;26.10;73.30
292;DHT22;23311;48.776;9.162;2023-07-31T08:59:34;26.50;73.60
292;DHT22;23311;48.776;9.162;2023-07-31T09:02:05;26.70;73.20
292;DHT22;23311;48.776;9.162;2023-07-31T09:04:35;25.20;76.10
292;DHT22;23311;48.776;9.162;2023-07-31T09:07:04;25.50;75.80
292;DHT22;23311;48.776;9.162;2023-07-31T09:09:34;25.80;74.70
292;DHT22;23311;48.776;9.162;2023-07-31T09:12:03;25.00;76.00
292;DHT22;23311;48.776;9.162;2023-07-31T09:14:31;24.40;78.00
292;DHT22;23311;48.776;9.162;2023-07-31T09:17:00;26.30;75.10
292;DHT22;23311;48.776;9.162;2023-07-31T09:19:31;26.10;74.10
292;DHT22;23311;48.776;9.162;2023-07-31T09:22:00;26.30;74.10
292;DHT22;23311;48.776;9.162;2023-07-31T09:24:30;25.60;75.80
292;DHT22;23311;48.776;9.162;2023-07-31T09:27:01;26.20;74.90
292;DHT22;23311;48.776;9.162;2023-07-31T09:29:29;24.80;75.80
292;DHT22;23311;48.776;9.162;2023-07-31T09:31:58;22.70;81.70
292;DHT22;23311;48.776;9.162;2023-07-31T09:34:30;23.50;80.60
292;DHT22;23311;48.776;9.162;2023-07-31T09:37:04;23.90;79.70
292;DHT22;23311;48.776;9.162;2023-07-31T09:39:45;23.30;80.90
292;DHT22;23311;48.776;9.162;2023-07-31T09:42:24;23.80;80.90
292;DHT22;23311;48.776;9.162;2023-07-31T09:44:53;23.60;81.20
292;DHT22;23311;48.776;9.162;2023-07-31T09:47:24;23.80;80.70
292;DHT22;23311;48.776;9.162;2023-07-31T09:49:53;23.70;81.20
292;DHT22;23311;48.776;9.162;2023-07-31T09:52:21;24.20;80.00
292;DHT22;23311;48.776;9.162;2023-07-31T09:54:50;25.40;77.50
292;DHT22;23311;48.776;9.162;2023-07-31T09:57:21;27.00;74.70
292;DHT22;23311;48.776;9.162;2023-07-31T09:59:52;28.20;71.50
292;DHT22;23311;48.776;9.162;2023-07-31T10:02:22;28.30;70.80
292;DHT22;23311;48.776;9.162;2023-07-31T10:04:51;27.50;71.70
292;DHT22;23311;48.776;9.162;2023-07-31T10:07:20;27.00;72.60
292;DHT22;23311;48.776;9.162;2023-07-31T10:09:51;27.10;73.00
292;DHT22;23311;48.776;9.162;2023-07-31T10:12:26;26.90;72.40
292;DHT22;23311;48.776;9.162;2023-07-31T10:14:55;26.70;72.70
292;DHT22;23311;48.776;9.162;2023-07-31T10:17:24;27.10;72.70
292;DHT22;23311;48.776;9.162;2023-07-31T10:19:53;26.50;73.30
292;DHT22;23311;48.776;9.162;2023-07-31T10:22:21;25.90;74.60
292;DHT22;23311;48.776;9.162;2023-07-31T10:24:50;25.00;75.80
292;DHT22;23311;48.776;9.162;2023-07-31T10:27:20;23.60;78.70
292;DHT22;23311;48.776;9.162;2023-07-31T10:29:50;23.70;79.40
292;DHT22;23311;48.776;9.162;2023-07-31T10:32:20;24.30;78.40
292;DHT22;23311;48.776;9.162;2023-07-31T10:34:49;24.70;77.60
292;DHT22;23311;48.776;9.162;2023-07-31T10:37:23;25.00;77.70
292;DHT22;23311;48.776;9.162;2023-07-31T10:39:59;25.30;76.60
292;DHT22;23311;48.776;9.162;2023-07-31T10:42:31;25.70;75.40
292;DHT22;23311;48.776;9.162;2023-07-31T10:45:03;25.70;74.80
292;DHT22;23311;48.776;9.162;2023-07-31T10:47:37;25.30;75.30
292;DHT22;23311;48.776;9.162;2023-07-31T10:50:13;24.80;76.80
292;DHT22;23311;48.776;9.162;2023-07-31T10:52:46;25.30;75.30
292;DHT22;23311;48.776;9.162;2023-07-31T10:55:30;25.50;75.10
292;DHT22;23311;48.776;9.162;2023-07-31T10:58:06;24.50;76.30
292;DHT22;23311;48.776;9.162;2023-07-31T11:00:37;24.40;77.50
292;DHT22;23311;48.776;9.162;2023-07-31T11:03:07;24.50;77.70
292;DHT22;23311;48.776;9.162;2023-07-31T11:05:50;24.50;77.20
292;DHT22;23311;48.776;9.162;2023-07-31T11:08:21;25.00;76.70
292;DHT22;23311;48.776;9.162;2023-07-31T11:10:51;25.40;75.70
292;DHT22;23311;48.776;9.162;2023-07-31T11:13:20;25.70;75.20
292;DHT22;23311;48.776;9.162;2023-07-31T11:15:51;25.20;75.80
292;DHT22;23311;48.776;9.162;2023-07-31T11:18:19;25.10;76.20
292;DHT22;23311;48.776;9.162;2023-07-31T11:20:47;25.50;75.80
292;DHT22;23311;48.776;9.162;2023-07-31T11:23:17;25.60;75.70
292;DHT22;23311;48.776;9.162;2023-07-31T11:25:45;25.50;75.00
292;DHT22;23311;48.776;9.162;2023-07-31T11:28:14;25.30;76.40
292;DHT22;23311;48.776;9.162;2023-07-31T11:30:44;26.60;74.00
292;DHT22;23311;48.776;9.162;2023-07-31T11:33:14;26.60;74.00
292;DHT22;23311;48.776;9.162;2023-07-31T11:35:44;26.10;74.10
292;DHT22;23311;48.776;9.162;2023-07-31T11:38:14;25.70;75.20
292;DHT22;23311;48.776;9.162;2023-07-31T11:40:48;25.40;76.30
292;DHT22;23311;48.776;9.162;2023-07-31T11:43:18;25.90;75.60
292;DHT22;23311;48.776;9.162;2023-07-31T11:45:48;25.90;75.20
292;DHT22;23311;48.776;9.162;2023-07-31T11:48:21;24.70;77.20
292;DHT22;23311;48.776;9.162;2023-07-31T11:50:51;24.80;77.80
292;DHT22;23311;48.776;9.162;2023-07-31T11:53:23;25.60;76.30
292;DHT22;23311;48.776;9.162;2023-07-31T11:55:53;26.00;75.40
292;DHT22;23311;48.776;9.162;2023-07-31T11:58:22;26.00;75.60
292;DHT22;23311;48.776;9.162;2023-07-31T12:00:51;25.70;75.50
292;DHT22;23311;48.776;9.162;2023-07-31T12:03:21;24.80;77.70
292;DHT22;23311;48.776;9.162;2023-07-31T12:05:49;25.70;77.00
292;DHT22;23311;48.776;9.162;2023-07-31T12:08:20;26.50;75.20
292;DHT22;23311;48.776;9.162;2023-07-31T12:10:50;26.20;74.90
292;DHT22;23311;48.776;9.162;2023-07-31T12:13:21;26.10;75.50
292;DHT22;23311;48.776;9.162;2023-07-31T12:15:54;26.60;75.10
292;DHT22;23311;48.776;9.162;2023-07-31T12:18:25;26.50;74.80
292;DHT22;23311;48.776;9.162;2023-07-31T12:20:55;26.30;74.80
292;DHT22;23311;48.776;9.162;2023-07-31T12:23:27;25.20;77.10
292;DHT22;23311;48.776;9.162;2023-07-31T12:26:02;25.10;77.50
292;DHT22;23311;48.776;9.162;2023-07-31T12:28:35;25.60;77.20
292;DHT22;23311;48.776;9.162;2023-07-31T12:31:04;26.20;76.10
292;DHT22;23311;48.776;9.162;2023-07-31T12:33:35;26.50;75.70
292;DHT22;23311;48.776;9.162;2023-07-31T12:36:07;26.10;75.70
292;DHT22;23311;48.776;9.162;2023-07-31T12:38:35;25.90;75.70
292;DHT22;23311;48.776;9.162;2023-07-31T12:41:03;25.80;75.90
292;DHT22;23311;48.776;9.162;2023-07-31T12:43:33;25.20;76.80
292;DHT22;23311;48.776;9.162;2023-07-31T12:46:02;24.30;78.20
292;DHT22;23311;48.776;9.162;2023-07-31T12:48:31;23.90;79.30
292;DHT22;23311;48.776;9.162;2023-07-31T12:51:01;23.90;79.40
292;DHT22;23311;48.776;9.162;2023-07-31T12:53:29;23.70;80.00
292;DHT22;23311;48.776;9.162;2023-07-31T12:55:58;23.90;79.60
292;DHT22;23311;48.776;9.162;2023-07-31T12:58:26;23.50;80.50
292;DHT22;23311;48.776;9.162;2023-07-31T13:00:54;23.70;80.80
292;DHT22;23311;48.776;9.162;2023-07-31T13:03:22;23.70;80.70
292;DHT22;23311;48.776;9.162;2023-07-31T13:05:51;24.30;80.00
292;DHT22;23311;48.776;9.162;2023-07-31T13:08:21;25.20;78.10
292;DHT22;23311;48.776;9.162;2023-07-31T13:10:49;24.90;77.90
292;DHT22;23311;48.776;9.162;2023-07-31T13:13:17;24.20;79.60
292;DHT22;23311;48.776;9.162;2023-07-31T13:15:45;23.90;80.20
292;DHT22;23311;48.776;9.162;2023-07-31T13:18:13;23.60;80.90
292;DHT22;23311;48.776;9.162;2023-07-31T13:20:41;24.30;79.30
292;DHT22;23311;48.776;9.162;2023-07-31T13:23:09;24.60;78.70
292;DHT22;23311;48.776;9.162;2023-07-31T13:25:39;24.90;77.90
292;DHT22;23311;48.776;9.162;2023-07-31T13:28:07;25.30;77.00
292;DHT22;23311;48.776;9.162;2023-07-31T13:30:35;25.80;75.90
292;DHT22;23311;48.776;9.162;2023-07-31T13:33:03;26.40;75.20
292;DHT22;23311;48.776;9.162;2023-07-31T13:35:32;27.40;73.10
292;DHT22;23311;48.776;9.162;2023-07-31T13:38:00;27.90;71.80
292;DHT22;23311;48.776;9.162;2023-07-31T13:40:28;27.90;72.30
292;DHT22;23311;48.776;9.162;2023-07-31T13:42:57;27.30;72.90
292;DHT22;23311;48.776;9.162;2023-07-31T13:45:25;27.50;73.20
292;DHT22;23311;48.776;9.162;2023-07-31T13:47:54;27.60;73.20
292;DHT22;23311;48.776;9.162;2023-07-31T13:50:22;27.10;73.10
292;DHT22;23311;48.776;9.162;2023-07-31T13:52:50;26.30;74.90
292;DHT22;23311;48.776;9.162;2023-07-31T13:55:18;26.10;75.20
292;DHT22;23311;48.776;9.162;2023-07-31T13:57:46;26.20;75.30
292;DHT22;23311;48.776;9.162;2023-07-31T14:00:17;26.00;75.70
292;DHT22;23311;48.776;9.162;2023-07-31T14:02:45;25.70;76.30
292;DHT22;23311;48.776;9.162;2023-07-31T14:05:13;25.90;76.80
292;DHT22;23311;48.776;9.162;2023-07-31T14:07:41;25.60;77.30
292;DHT22;23311;48.776;9.162;2023-07-31T14:10:09;25.70;77.30
292;DHT22;23311;48.776;9.162;2023-07-31T14:12:38;25.90;77.40
292;DHT22;23311;48.776;9.162;2023-07-31T14:15:09;26.20;76.60
292;DHT22;23311;48.776;9.162;2023-07-31T14:17:39;25.30;77.40
292;DHT22;23311;48.776;9.162;2023-07-31T14:20:09;25.10;78.60
292;DHT22;23311;48.776;9.162;2023-07-31T14:22:38;25.70;77.70
292;DHT22;23311;48.776;9.162;2023-07-31T14:25:07;26.00;77.10
292;DHT22;23311;48.776;9.162;2023-07-31T14:27:37;25.90;76.60
292;DHT22;23311;48.776;9.162;2023-07-31T14:30:07;25.40;77.40
292;DHT22;23311;48.776;9.162;2023-07-31T14:32:35;25.90;77.10
292;DHT22;23311;48.776;9.162;2023-07-31T14:35:06;25.80;76.80
292;DHT22;23311;48.776;9.162;2023-07-31T14:37:37;25.90;77.50
292;DHT22;23311;48.776;9.162;2023-07-31T14:40:07;26.30;76.70
292;DHT22;23311;48.776;9.162;2023-07-31T14:42:36;26.50;76.60
292;DHT22;23311;48.776;9.162;2023-07-31T14:45:07;26.30;76.00
292;DHT22;23311;48.776;9.162;2023-07-31T14:47:37;26.50;75.60
292;DHT22;23311;48.776;9.162;2023-07-31T14:50:07;26.20;76.30
292;DHT22;23311;48.776;9.162;2023-07-31T14:52:35;25.90;76.60
292;DHT22;23311;48.776;9.162;2023-07-31T14:55:04;25.70;77.30
292;DHT22;23311;48.776;9.162;2023-07-31T14:57:33;25.00;77.90
292;DHT22;23311;48.776;9.162;2023-07-31T15:00:01;25.10;78.20
292;DHT22;23311;48.776;9.162;2023-07-31T15:02:34;25.30;78.00
292;DHT22;23311;48.776;9.162;2023-07-31T15:05:03;25.00;78.00
292;DHT22;23311;48.776;9.162;2023-07-31T15:07:32;25.10;78.50
292;DHT22;23311;48.776;9.162;2023-07-31T15:10:01;26.10;76.60
292;DHT22;23311;48.776;9.162;2023-07-31T15:12:30;27.00;74.60
292;DHT22;23311;48.776;9.162;2023-07-31T15:14:58;26.20;75.60
292;DHT22;23311;48.776;9.162;2023-07-31T15:17:26;26.60;75.10
292;DHT22;23311;48.776;9.162;2023-07-31T15:19:55;26.10;75.50
292;DHT22;23311;48.776;9.162;2023-07-31T15:22:23;26.70;75.30
292;DHT22;23311;48.776;9.162;2023-07-31T15:24:53;27.40;73.30
292;DHT22;23311;48.776;9.162;2023-07-31T15:27:21;26.70;74.20
292;DHT22;23311;48.776;9.162;2023-07-31T15:29:50;25.70;75.90
292;DHT22;23311;48.776;9.162;2023-07-31T15:32:18;25.60;76.30
292;DHT22;23311;48.776;9.162;2023-07-31T15:34:46;26.20;75.70
292;DHT22;23311;48.776;9.162;2023-07-31T15:37:14;26.80;75.00
292;DHT22;23311;48.776;9.162;2023-07-31T15:39:44;27.80;73.10
292;DHT22;23311;48.776;9.162;2023-07-31T15:42:13;27.00;73.80
292;DHT22;23311;48.776;9.162;2023-07-31T15:44:41;27.10;73.80
292;DHT22;23311;48.776;9.162;2023-07-31T15:47:09;26.60;74.30
292;DHT22;23311;48.776;9.162;2023-07-31T15:49:38;26.20;75.70
292;DHT22;23311;48.776;9.162;2023-07-31T15:52:06;26.70;75.40
292;DHT22;23311;48.776;9.162;2023-07-31T15:54:34;27.30;73.70
292;DHT22;23311;48.776;9.162;2023-07-31T15:57:03;27.00;73.70
292;DHT22;23311;48.776;9.162;2023-07-31T15:59:32;26.70;74.40
292;DHT22;23311;48.776;9.162;2023-07-31T16:02:00;26.10;75.70
292;DHT22;23311;48.776;9.162;2023-07-31T16:04:29;26.70;75.10
292;DHT22;23311;48.776;9.162;2023-07-31T16:06:57;27.20;74.10
292;DHT22;23311;48.776;9.162;2023-07-31T16:09:25;27.40;73.70
292;DHT22;23311;48.776;9.162;2023-07-31T16:11:53;25.90;76.60
292;DHT22;23311;48.776;9.162;2023-07-31T16:14:21;26.10;76.70